Matlock, IA (51244)

1:07 PM CDT on September 20, 2014 (GMT -0500)
Sheldon Municipal | Change Station
CLOSE
Current Station
Airport
Location: Sheldon,
Elevation: 1417 ft
Nearby Weather Stations

Elev 1417 ft 43.21 °N, 95.84 °W | Updated 12 minutes ago

Clear
Clear
79 °F
Feels Like 79 °F
N
12
Wind Variable Wind from WNW

Today
High -- | Low -- °F
--% Chance of Precip.
Yesterday
High -- | Low -- °F
Precip. -- in
7:09 AM 7:24 PM
Waning Crescent, 11% visible
Pressure 29.89 in
Visibility 10.0 miles
Clouds Clear
Dew Point 59 °F
Humidity 51%
Rainfall 0.02 in
Snow Depth Not available.
UV 7 out of 12
Pollen 5.30 out of 12
Air Quality Not available.
Flu Activity Not available.
METAR KSHL 201755Z AUTO 29010KT 10SM CLR 26/15 A2989 RMK AO2

More Conditions Fewer Conditions

Pressure 29.89 in
Visibility 10.0 miles
Clouds Clear
Dew Point 59 °F
Humidity 51%
Rainfall 0.02 in
Snow Depth Not available.
UV 7 out of 12
Pollen 5.30 out of 12
Air Quality Not available.
Flu Activity Not available.
METAR KSHL 201755Z AUTO 29010KT 10SM CLR 26/15 A2989 RMK AO2

More Conditions Fewer Conditions

10-Day Weather Forecast

Almanac

Astronomy

Sep. 20, 2014 Rise Set
Actual Time 7:09 AM CDT 7:24 PM CDT
Civil Twilight 6:40 AM CDT 7:53 PM CDT
Nautical Twilight 6:07 AM CDT 8:26 PM CDT
Astronomical Twilight 5:32 AM CDT 9:00 PM CDT
Moon 3:44 AM CDT 5:32 PM CDT
Length of Visible Light 13h 12m
Length of Day
12h 15m
Tomorrow will be 2m 54s shorter.
Waning Crescent, 11% of the Moon is Illuminated
Today
Waning Crescent
Sep 24
New
Oct 1
First Quarter
Oct 8
Full
Oct 15
Last Quarter

Today's Extremes

State Highs State Lows

Community

WunderPhotos

Upload Photos

1,754,921 photos uploaded!

WunderBlogs® & News

Nearby

Snow Depth

Station Depth Elevation
No new snow has been reported.

Earthquake Activity

City Distance Mag. Time & Date
No recent earthquake activity has been reported nearby.
Minimum magnitude displayed is 2.5.

Coastal Water Temperatures

Place Temperature
No Stations Reporting

Nearby Weather Stations